createdAt,value
2017-08-27T00:01:59.184Z,50.30
2017-08-27T00:04:26.732Z,50.60
2017-08-27T00:06:54.313Z,50.00
2017-08-27T00:09:21.869Z,50.20
2017-08-27T00:11:49.432Z,50.00
2017-08-27T00:14:17.028Z,50.30
2017-08-27T00:16:44.799Z,50.00
2017-08-27T00:19:12.358Z,49.90
2017-08-27T00:21:39.958Z,49.70
2017-08-27T00:24:07.542Z,50.00
2017-08-27T00:26:35.193Z,50.40
2017-08-27T00:29:02.763Z,50.30
2017-08-27T00:31:30.318Z,49.60
2017-08-27T00:33:57.883Z,49.50
2017-08-27T00:36:25.470Z,49.40
2017-08-27T00:38:53.028Z,49.60
2017-08-27T00:41:20.588Z,49.40
2017-08-27T00:43:48.192Z,49.30
2017-08-27T00:46:15.740Z,49.40
2017-08-27T00:48:43.288Z,49.60
2017-08-27T00:51:11.261Z,49.40
2017-08-27T00:53:38.831Z,49.20
2017-08-27T00:56:06.419Z,49.30
2017-08-27T00:58:33.989Z,49.40
2017-08-27T01:01:01.552Z,49.30
2017-08-27T01:03:29.129Z,49.30
2017-08-27T01:05:56.759Z,49.30
2017-08-27T01:08:24.323Z,50.00
2017-08-27T01:10:51.863Z,49.30
2017-08-27T01:13:19.445Z,49.20
2017-08-27T01:15:47.018Z,49.60
2017-08-27T01:18:14.587Z,49.70
2017-08-27T01:20:42.204Z,50.00
2017-08-27T01:23:09.761Z,50.50
2017-08-27T01:25:37.345Z,50.10
2017-08-27T01:28:04.921Z,51.90
2017-08-27T01:30:32.481Z,50.90
2017-08-27T01:33:00.042Z,51.10
2017-08-27T01:35:27.639Z,51.20
2017-08-27T01:37:55.208Z,54.30
2017-08-27T01:40:22.770Z,52.90
2017-08-27T01:42:50.347Z,53.00
2017-08-27T01:45:17.888Z,56.50
2017-08-27T01:47:45.428Z,57.80
2017-08-27T01:50:13.789Z,58.90
2017-08-27T01:52:41.344Z,59.00
2017-08-27T01:55:08.891Z,59.60
2017-08-27T01:57:36.484Z,60.20
2017-08-27T02:00:04.044Z,60.40
2017-08-27T02:02:31.585Z,59.90
2017-08-27T02:04:59.160Z,60.50
2017-08-27T02:07:26.714Z,61.60
2017-08-27T02:09:54.261Z,62.70
2017-08-27T02:12:21.850Z,64.10
2017-08-27T02:14:49.401Z,64.20
2017-08-27T02:17:16.955Z,63.50
2017-08-27T02:19:44.533Z,63.50
2017-08-27T02:22:12.084Z,64.50
2017-08-27T02:24:39.645Z,65.00
2017-08-27T02:27:07.220Z,65.10
2017-08-27T02:29:34.773Z,65.80
2017-08-27T02:32:02.337Z,66.50
2017-08-27T02:34:29.925Z,66.50
2017-08-27T02:36:57.480Z,66.70
2017-08-27T02:39:25.029Z,67.60
2017-08-27T02:41:52.618Z,68.00
2017-08-27T02:44:20.156Z,67.70
2017-08-27T02:46:47.709Z,67.70
2017-08-27T02:49:15.309Z,68.20
2017-08-27T02:51:42.866Z,67.90
2017-08-27T02:54:10.433Z,68.40
2017-08-27T02:56:38.026Z,68.30
2017-08-27T02:59:05.589Z,68.10
2017-08-27T03:01:33.162Z,69.00
2017-08-27T03:04:00.745Z,68.30
2017-08-27T03:06:28.323Z,68.00
2017-08-27T03:08:55.876Z,67.90
2017-08-27T03:11:23.477Z,68.50
2017-08-27T03:13:51.047Z,69.20
2017-08-27T03:16:18.629Z,69.00
2017-08-27T03:18:46.186Z,69.60
2017-08-27T03:21:13.740Z,69.20
2017-08-27T03:23:41.307Z,68.50
2017-08-27T03:26:08.865Z,68.40
2017-08-27T03:28:36.428Z,69.20
2017-08-27T03:31:03.970Z,69.20
2017-08-27T03:33:31.559Z,70.50
2017-08-27T03:35:59.128Z,70.20
2017-08-27T03:38:26.692Z,71.10
2017-08-27T03:40:54.246Z,71.40
2017-08-27T03:43:21.834Z,71.10
2017-08-27T03:45:49.394Z,71.50
2017-08-27T03:48:16.941Z,71.40
2017-08-27T03:50:44.513Z,71.20
2017-08-27T03:53:12.068Z,71.40
2017-08-27T03:55:39.659Z,70.90
2017-08-27T03:58:07.229Z,70.90
2017-08-27T04:00:34.800Z,71.30
2017-08-27T04:03:02.356Z,70.40
2017-08-27T04:05:29.930Z,70.60
2017-08-27T04:07:57.486Z,70.70
2017-08-27T04:10:25.043Z,71.00
2017-08-27T04:12:52.620Z,70.50
2017-08-27T04:15:20.181Z,71.40
2017-08-27T04:17:47.771Z,72.00
2017-08-27T04:20:15.326Z,71.40
2017-08-27T04:22:42.909Z,72.60
2017-08-27T04:25:10.466Z,72.40
2017-08-27T04:27:38.069Z,70.90
2017-08-27T04:30:05.637Z,71.90
2017-08-27T04:32:33.211Z,72.40
2017-08-27T04:35:00.775Z,72.70
2017-08-27T04:37:28.317Z,71.90
2017-08-27T04:39:55.898Z,73.40
2017-08-27T04:42:23.448Z,71.80
2017-08-27T04:44:51.008Z,74.30
2017-08-27T04:47:18.548Z,73.30
2017-08-27T04:49:46.130Z,74.10
2017-08-27T04:52:13.671Z,74.70
2017-08-27T04:54:41.281Z,73.20
2017-08-27T04:57:08.827Z,74.80
2017-08-27T04:59:36.381Z,73.80
2017-08-27T05:02:03.981Z,74.90
2017-08-27T05:04:31.537Z,73.60
2017-08-27T05:06:59.113Z,75.60
2017-08-27T05:09:26.657Z,74.20
2017-08-27T05:11:54.222Z,75.70
2017-08-27T05:14:21.771Z,75.90
2017-08-27T05:16:49.361Z,75.70
2017-08-27T05:19:16.925Z,76.70
2017-08-27T05:21:44.509Z,76.70
2017-08-27T05:24:12.057Z,76.00
2017-08-27T05:26:39.608Z,76.90
2017-08-27T05:29:07.190Z,75.80
2017-08-27T05:31:34.740Z,76.70
2017-08-27T05:34:02.321Z,76.60
2017-08-27T05:36:29.870Z,77.20
2017-08-27T05:38:57.452Z,78.20
2017-08-27T05:41:24.997Z,77.80
2017-08-27T05:43:52.613Z,77.10
2017-08-27T05:46:20.191Z,77.30
2017-08-27T05:48:47.757Z,77.10
2017-08-27T05:51:15.326Z,77.70
2017-08-27T05:53:42.877Z,78.80
2017-08-27T05:56:10.460Z,77.20
2017-08-27T05:58:38.019Z,77.50
2017-08-27T06:01:05.617Z,78.30
2017-08-27T06:03:33.213Z,75.50
2017-08-27T06:06:00.780Z,77.00
2017-08-27T06:08:28.341Z,77.70
2017-08-27T06:10:55.909Z,77.40
2017-08-27T06:13:23.505Z,77.90
2017-08-27T06:15:51.073Z,77.50
2017-08-27T06:18:18.660Z,77.90
2017-08-27T06:20:46.214Z,74.40
2017-08-27T06:23:13.793Z,74.20
2017-08-27T06:25:41.347Z,73.40
2017-08-27T06:28:08.935Z,72.40
2017-08-27T06:30:36.519Z,74.20
2017-08-27T06:33:04.092Z,73.60
2017-08-27T06:35:31.643Z,72.50
2017-08-27T06:37:59.202Z,72.00
2017-08-27T06:40:26.774Z,71.50
2017-08-27T06:42:54.340Z,72.00
2017-08-27T06:45:21.936Z,70.10
2017-08-27T06:47:49.494Z,71.70
2017-08-27T06:50:17.061Z,70.30
2017-08-27T06:52:44.606Z,70.20
2017-08-27T06:55:12.191Z,66.10
2017-08-27T06:57:39.763Z,66.30
2017-08-27T07:00:07.318Z,66.40
2017-08-27T07:02:34.883Z,61.80
2017-08-27T07:05:03.202Z,61.30
2017-08-27T07:07:30.760Z,61.20
2017-08-27T07:09:58.313Z,58.10
2017-08-27T07:12:25.883Z,58.10
2017-08-27T07:14:53.452Z,58.40
2017-08-27T07:17:21.025Z,56.80
2017-08-27T07:19:48.583Z,56.50
2017-08-27T07:22:16.161Z,56.60
2017-08-27T07:24:43.708Z,58.30
2017-08-27T07:27:11.289Z,56.70
2017-08-27T07:29:38.855Z,55.30
2017-08-27T07:32:06.411Z,55.10
2017-08-27T07:34:34.084Z,55.00
2017-08-27T07:37:02.949Z,54.40
2017-08-27T07:39:30.627Z,54.40
2017-08-27T07:41:58.173Z,53.50
2017-08-27T07:44:25.761Z,53.30
2017-08-27T07:46:53.322Z,51.80
2017-08-27T07:49:20.882Z,51.60
2017-08-27T07:51:48.462Z,50.70
2017-08-27T07:54:16.017Z,51.90
2017-08-27T07:56:43.599Z,52.10
2017-08-27T07:59:11.159Z,52.30
2017-08-27T08:01:38.746Z,53.20
2017-08-27T08:04:06.303Z,53.40
2017-08-27T08:06:33.893Z,51.30
2017-08-27T08:09:01.452Z,52.00
2017-08-27T08:11:29.036Z,52.90
2017-08-27T08:13:56.590Z,52.70
2017-08-27T08:16:24.128Z,51.40
2017-08-27T08:18:51.698Z,50.60
2017-08-27T08:21:19.278Z,48.80
2017-08-27T08:23:46.872Z,48.40
2017-08-27T08:26:14.422Z,49.10
2017-08-27T08:28:42.010Z,49.00
2017-08-27T08:31:09.562Z,53.70
2017-08-27T08:33:37.144Z,54.40
2017-08-27T08:36:04.707Z,51.10
2017-08-27T08:38:32.270Z,52.60
2017-08-27T08:40:59.836Z,50.70
2017-08-27T08:43:27.401Z,54.20
2017-08-27T08:45:54.978Z,51.80
2017-08-27T08:48:22.524Z,49.80
2017-08-27T08:50:50.091Z,51.20
2017-08-27T08:53:17.642Z,45.20
2017-08-27T08:55:45.240Z,47.50
2017-08-27T08:58:12.855Z,45.80
2017-08-27T09:00:40.429Z,42.00
2017-08-27T09:03:08.001Z,39.50
2017-08-27T09:05:35.576Z,41.10
2017-08-27T09:08:03.150Z,41.90
2017-08-27T09:10:30.704Z,40.60
2017-08-27T09:12:58.309Z,40.00
2017-08-27T09:15:25.866Z,43.00
2017-08-27T09:17:53.460Z,45.20
2017-08-27T09:20:21.008Z,45.80
2017-08-27T09:22:48.585Z,46.80
2017-08-27T09:25:16.269Z,47.80
2017-08-27T09:27:43.826Z,50.30
2017-08-27T09:30:11.433Z,45.20
2017-08-27T09:32:38.992Z,46.00
2017-08-27T09:35:06.585Z,50.40
2017-08-27T09:37:34.129Z,43.60
2017-08-27T09:40:01.708Z,49.10
2017-08-27T09:42:29.265Z,43.80
2017-08-27T09:44:56.854Z,46.80
2017-08-27T09:47:24.414Z,48.00
2017-08-27T09:49:52.005Z,45.30
2017-08-27T09:52:19.548Z,49.30
2017-08-27T09:54:47.099Z,45.90
2017-08-27T09:57:14.809Z,45.50
2017-08-27T09:59:42.361Z,50.80
2017-08-27T10:02:09.952Z,46.70
2017-08-27T10:04:37.579Z,50.80
2017-08-27T10:07:05.159Z,56.20
2017-08-27T10:09:32.740Z,54.30
2017-08-27T10:12:00.321Z,52.80
2017-08-27T10:14:27.903Z,56.20
2017-08-27T10:16:55.468Z,53.70
2017-08-27T10:19:23.054Z,52.70
2017-08-27T10:21:50.616Z,52.70
2017-08-27T10:24:18.208Z,52.00
2017-08-27T10:26:45.776Z,53.50
2017-08-27T10:29:13.348Z,53.00
2017-08-27T10:31:40.889Z,53.40
2017-08-27T10:34:08.485Z,50.60
2017-08-27T10:36:36.045Z,52.90
2017-08-27T10:39:03.658Z,50.30
2017-08-27T10:41:32.002Z,50.20
2017-08-27T10:43:59.578Z,50.90
2017-08-27T10:46:27.168Z,49.90
2017-08-27T10:48:54.731Z,50.10
2017-08-27T10:51:22.364Z,47.00
2017-08-27T10:53:49.930Z,49.50
2017-08-27T10:56:17.517Z,44.50
2017-08-27T10:58:45.074Z,49.90
2017-08-27T11:01:12.649Z,47.70
2017-08-27T11:03:40.981Z,49.90
2017-08-27T11:06:08.553Z,49.80
2017-08-27T11:08:36.123Z,48.00
2017-08-27T11:11:03.674Z,48.40
2017-08-27T11:13:31.253Z,46.70
2017-08-27T11:15:58.813Z,49.80
2017-08-27T11:18:26.407Z,47.10
2017-08-27T11:20:53.946Z,49.80
2017-08-27T11:23:21.526Z,48.30
2017-08-27T11:25:49.087Z,50.40
2017-08-27T11:28:16.667Z,51.50
2017-08-27T11:30:44.258Z,47.60
2017-08-27T11:33:11.832Z,48.50
2017-08-27T11:35:39.410Z,47.30
2017-08-27T11:38:06.960Z,47.40
2017-08-27T11:40:34.550Z,46.00
2017-08-27T11:43:02.122Z,47.40
2017-08-27T11:45:29.719Z,48.20
2017-08-27T11:47:57.284Z,49.30
2017-08-27T11:50:24.917Z,49.30
2017-08-27T11:52:52.490Z,48.20
2017-08-27T11:55:20.051Z,48.60
2017-08-27T11:57:47.627Z,45.80
2017-08-27T12:00:15.190Z,46.20
2017-08-27T12:02:43.290Z,50.40
2017-08-27T12:05:11.609Z,46.50
2017-08-27T12:07:39.190Z,46.50
2017-08-27T12:10:06.742Z,48.00
2017-08-27T12:12:34.333Z,45.10
2017-08-27T12:15:01.905Z,44.70
2017-08-27T12:17:29.478Z,42.70
2017-08-27T12:19:57.051Z,41.30
2017-08-27T12:22:24.625Z,41.00
2017-08-27T12:24:52.203Z,41.60
2017-08-27T12:27:19.768Z,42.80
2017-08-27T12:29:47.372Z,47.40
2017-08-27T12:32:14.934Z,46.20
2017-08-27T12:34:42.517Z,48.80
2017-08-27T12:37:10.078Z,44.10
2017-08-27T12:39:37.656Z,46.10
2017-08-27T12:42:05.227Z,44.90
2017-08-27T12:44:32.777Z,47.60
2017-08-27T12:47:00.352Z,47.60
2017-08-27T12:49:27.918Z,44.90
2017-08-27T12:51:55.504Z,44.60
2017-08-27T12:54:23.061Z,43.30
2017-08-27T12:56:50.641Z,43.50
2017-08-27T12:59:18.197Z,41.10
2017-08-27T13:01:45.805Z,40.60
2017-08-27T13:04:13.375Z,45.10
2017-08-27T13:06:40.928Z,43.90
2017-08-27T13:09:08.523Z,44.60
2017-08-27T13:11:36.406Z,44.00
2017-08-27T13:14:03.998Z,47.80
2017-08-27T13:16:31.560Z,47.20
2017-08-27T13:18:59.124Z,45.80
2017-08-27T13:21:26.690Z,49.70
2017-08-27T13:23:54.274Z,50.90
2017-08-27T13:26:21.842Z,52.10
2017-08-27T13:28:49.426Z,55.20
2017-08-27T13:31:16.990Z,50.20
2017-08-27T13:33:44.532Z,54.40
2017-08-27T13:36:12.107Z,57.10
2017-08-27T13:38:39.649Z,59.10
2017-08-27T13:41:07.215Z,58.30
2017-08-27T13:43:34.767Z,64.00
2017-08-27T13:46:02.379Z,65.30
2017-08-27T13:48:29.948Z,64.50
2017-08-27T13:50:57.541Z,63.10
2017-08-27T13:53:25.094Z,61.80
2017-08-27T13:55:52.664Z,65.70
2017-08-27T13:58:20.250Z,63.00
2017-08-27T14:00:47.795Z,62.60
2017-08-27T14:03:15.379Z,63.80
2017-08-27T14:05:42.934Z,60.10
2017-08-27T14:08:10.498Z,59.40
2017-08-27T14:10:38.069Z,58.10
2017-08-27T14:13:05.659Z,57.50
2017-08-27T14:15:33.233Z,55.50
2017-08-27T14:18:00.804Z,56.20
2017-08-27T14:20:28.386Z,56.10
2017-08-27T14:22:55.955Z,57.20
2017-08-27T14:25:23.559Z,56.90
2017-08-27T14:27:51.119Z,58.30
2017-08-27T14:30:18.738Z,60.50
2017-08-27T14:32:47.639Z,63.70
2017-08-27T14:35:15.296Z,64.40
2017-08-27T14:37:42.839Z,62.40
2017-08-27T14:40:10.425Z,62.40
2017-08-27T14:42:37.985Z,68.00
2017-08-27T14:45:05.558Z,63.40
2017-08-27T14:47:33.191Z,63.30
2017-08-27T14:50:00.755Z,64.90
2017-08-27T14:52:28.329Z,61.60
2017-08-27T14:54:55.878Z,63.20
2017-08-27T14:57:23.457Z,61.10
2017-08-27T14:59:51.019Z,59.00
2017-08-27T15:02:18.589Z,62.90
2017-08-27T15:04:46.132Z,63.00
2017-08-27T15:07:13.717Z,62.80
2017-08-27T15:09:41.305Z,68.80
2017-08-27T15:12:08.857Z,69.30
2017-08-27T15:14:36.430Z,66.60
2017-08-27T15:17:03.986Z,69.50
2017-08-27T15:19:31.937Z,67.60
2017-08-27T15:21:59.502Z,64.20
2017-08-27T15:24:27.092Z,65.60
2017-08-27T15:26:54.671Z,68.80
2017-08-27T15:29:22.258Z,64.90
2017-08-27T15:31:49.822Z,65.00
2017-08-27T15:34:17.378Z,62.40
2017-08-27T15:36:46.262Z,64.20
2017-08-27T15:39:13.820Z,63.30
2017-08-27T15:41:42.363Z,61.30
2017-08-27T15:44:10.145Z,65.50
2017-08-27T15:46:37.721Z,64.30
2017-08-27T15:49:05.295Z,63.70
2017-08-27T15:51:32.869Z,63.40
2017-08-27T15:54:00.425Z,61.30
2017-08-27T15:56:27.982Z,62.10
2017-08-27T15:58:55.569Z,61.60
2017-08-27T16:01:23.125Z,62.20
2017-08-27T16:03:51.465Z,61.70
2017-08-27T16:06:19.008Z,61.70
2017-08-27T16:08:46.585Z,61.80
2017-08-27T16:11:14.145Z,61.00
2017-08-27T16:13:41.715Z,62.00
2017-08-27T16:16:09.268Z,60.00
2017-08-27T16:18:36.852Z,60.60
2017-08-27T16:21:04.439Z,62.70
2017-08-27T16:23:32.020Z,60.80
2017-08-27T16:25:59.608Z,59.80
2017-08-27T16:28:27.174Z,58.30
2017-08-27T16:30:54.795Z,59.10
2017-08-27T16:33:22.379Z,59.30
2017-08-27T16:35:49.974Z,59.40
2017-08-27T16:38:18.438Z,59.20
2017-08-27T16:40:46.169Z,59.30
2017-08-27T16:43:13.745Z,57.40
2017-08-27T16:45:41.309Z,57.90
2017-08-27T16:48:08.896Z,59.00
2017-08-27T16:50:36.469Z,59.00
2017-08-27T16:53:04.151Z,59.00
2017-08-27T16:55:31.704Z,63.60
2017-08-27T16:57:59.292Z,64.30
2017-08-27T17:00:26.836Z,65.50
2017-08-27T17:02:54.420Z,65.80
2017-08-27T17:05:21.976Z,65.90
2017-08-27T17:07:49.576Z,66.80
2017-08-27T17:10:17.194Z,68.10
2017-08-27T17:12:44.796Z,68.90
2017-08-27T17:15:12.425Z,68.90
2017-08-27T17:17:39.997Z,69.50
2017-08-27T17:20:07.597Z,70.40
2017-08-27T17:22:35.181Z,70.50
2017-08-27T17:25:02.855Z,71.00
2017-08-27T17:27:30.442Z,71.60
2017-08-27T17:29:58.044Z,70.90
2017-08-27T17:32:25.650Z,71.60
2017-08-27T17:34:53.242Z,72.60
2017-08-27T17:37:20.849Z,71.80
2017-08-27T17:39:48.415Z,72.10
2017-08-27T17:42:17.437Z,73.00
2017-08-27T17:44:45.114Z,73.00
2017-08-27T17:47:12.739Z,70.40
2017-08-27T17:49:40.297Z,72.60
2017-08-27T17:52:07.906Z,72.00
2017-08-27T17:54:35.483Z,72.10
2017-08-27T17:57:03.100Z,71.80
2017-08-27T17:59:30.686Z,72.00
2017-08-27T18:01:58.237Z,71.70
2017-08-27T18:04:25.824Z,72.30
2017-08-27T18:06:53.494Z,73.00
2017-08-27T18:09:21.090Z,72.50
2017-08-27T18:11:48.648Z,72.30
2017-08-27T18:14:16.290Z,73.40
2017-08-27T18:16:43.863Z,73.60
2017-08-27T18:19:11.462Z,74.10
2017-08-27T18:21:39.011Z,74.30
2017-08-27T18:26:40.650Z,74.40
2017-08-27T18:29:08.196Z,74.30
2017-08-27T18:31:35.781Z,74.40
2017-08-27T18:34:03.321Z,74.00
2017-08-27T18:36:31.233Z,73.90
2017-08-27T18:38:58.785Z,74.10
2017-08-27T18:41:26.409Z,73.90
2017-08-27T18:43:53.972Z,74.10
2017-08-27T18:46:21.572Z,74.80
2017-08-27T18:48:49.116Z,74.10
2017-08-27T18:51:16.673Z,74.40
2017-08-27T18:53:44.257Z,74.70
2017-08-27T18:56:11.825Z,73.90
2017-08-27T18:58:39.409Z,74.40
2017-08-27T19:01:06.964Z,74.50
2017-08-27T19:03:34.556Z,75.50
2017-08-27T19:06:02.124Z,74.90
2017-08-27T19:08:29.709Z,74.80
2017-08-27T19:10:57.266Z,74.90
2017-08-27T19:13:24.811Z,75.10
2017-08-27T19:15:52.382Z,74.90
2017-08-27T19:18:20.083Z,75.40
2017-08-27T19:20:47.686Z,76.00
2017-08-27T19:23:15.237Z,75.30
2017-08-27T19:25:42.885Z,75.70
2017-08-27T19:28:10.436Z,75.70
2017-08-27T19:30:38.013Z,75.90
2017-08-27T19:33:05.634Z,75.80
2017-08-27T19:35:33.238Z,76.10
2017-08-27T19:38:00.798Z,77.60
2017-08-27T19:40:28.348Z,77.60
2017-08-27T19:42:55.927Z,77.50
2017-08-27T19:45:23.487Z,78.50
2017-08-27T19:47:51.052Z,78.60
2017-08-27T19:50:18.601Z,78.00
2017-08-27T19:52:46.945Z,77.00
2017-08-27T19:55:14.492Z,76.90
2017-08-27T19:57:42.077Z,77.20
2017-08-27T20:00:09.630Z,78.40
2017-08-27T20:02:37.199Z,78.50
2017-08-27T20:05:04.773Z,78.80
2017-08-27T20:07:32.322Z,78.40
2017-08-27T20:09:59.908Z,77.00
2017-08-27T20:12:27.475Z,77.00
2017-08-27T20:14:55.056Z,77.60
2017-08-27T20:17:22.610Z,77.70
2017-08-27T20:19:50.202Z,78.40
2017-08-27T20:22:17.739Z,77.90
2017-08-27T20:24:45.318Z,78.50
2017-08-27T20:27:12.877Z,78.00
2017-08-27T20:29:40.430Z,78.60
2017-08-27T20:32:07.998Z,78.60
2017-08-27T20:34:35.557Z,78.50
2017-08-27T20:37:03.133Z,78.50
2017-08-27T20:39:30.677Z,77.80
2017-08-27T20:41:58.254Z,78.00
2017-08-27T20:44:25.796Z,79.20
2017-08-27T20:46:53.381Z,79.60
2017-08-27T20:49:20.919Z,78.50
2017-08-27T20:51:48.463Z,78.10
2017-08-27T20:54:16.055Z,78.10
2017-08-27T20:56:43.596Z,78.70
2017-08-27T20:59:11.173Z,78.50
2017-08-27T21:01:38.713Z,78.40
2017-08-27T21:04:06.308Z,79.20
2017-08-27T21:06:33.876Z,80.40
2017-08-27T21:09:02.235Z,80.70
2017-08-27T21:11:29.869Z,80.70
2017-08-27T21:13:57.451Z,80.50
2017-08-27T21:16:25.013Z,80.60
2017-08-27T21:18:52.569Z,78.70
2017-08-27T21:21:20.158Z,81.10
2017-08-27T21:23:48.476Z,79.00
2017-08-27T21:26:16.070Z,79.00
2017-08-27T21:28:43.609Z,80.70
2017-08-27T21:31:11.207Z,80.60
2017-08-27T21:33:40.456Z,79.00
2017-08-27T21:36:09.726Z,79.70
2017-08-27T21:38:37.297Z,78.80
2017-08-27T21:41:04.856Z,80.40
2017-08-27T21:43:32.450Z,79.30
2017-08-27T21:46:00.019Z,78.90
2017-08-27T21:48:27.587Z,78.40
2017-08-27T21:50:55.144Z,78.30
2017-08-27T21:53:22.732Z,77.60
2017-08-27T21:55:50.277Z,78.90
2017-08-27T21:58:17.855Z,79.40
2017-08-27T22:00:45.417Z,79.60
2017-08-27T22:03:13.009Z,79.90
2017-08-27T22:05:40.685Z,78.10
2017-08-27T22:08:08.239Z,79.30
2017-08-27T22:10:35.826Z,80.10
2017-08-27T22:13:03.407Z,79.20
2017-08-27T22:15:31.452Z,79.00
2017-08-27T22:17:59.015Z,79.30
2017-08-27T22:20:26.578Z,78.80
2017-08-27T22:22:54.129Z,78.50
2017-08-27T22:25:22.217Z,80.60
2017-08-27T22:27:49.790Z,80.60
2017-08-27T22:30:17.358Z,79.20
2017-08-27T22:32:44.931Z,78.70
2017-08-27T22:35:12.481Z,78.50
2017-08-27T22:37:40.047Z,79.50
2017-08-27T22:40:07.615Z,79.00
2017-08-27T22:42:35.242Z,79.60
2017-08-27T22:45:02.799Z,78.80
2017-08-27T22:47:30.395Z,78.40
2017-08-27T22:49:57.952Z,79.10
2017-08-27T22:52:25.540Z,79.10
2017-08-27T22:54:55.199Z,79.60
2017-08-27T22:57:24.323Z,79.50
2017-08-27T22:59:51.915Z,78.50
2017-08-27T23:02:19.501Z,78.50
2017-08-27T23:04:47.099Z,77.30
2017-08-27T23:07:14.653Z,79.60
2017-08-27T23:09:42.244Z,80.30
2017-08-27T23:12:09.913Z,79.50
2017-08-27T23:14:37.502Z,78.80
2017-08-27T23:17:05.064Z,79.30
2017-08-27T23:19:32.611Z,78.60
2017-08-27T23:22:00.209Z,79.50
2017-08-27T23:24:27.773Z,78.00
2017-08-27T23:26:55.383Z,80.60
2017-08-27T23:29:22.942Z,80.80
2017-08-27T23:31:50.531Z,80.00
2017-08-27T23:34:18.117Z,79.40
2017-08-27T23:36:45.680Z,79.70
2017-08-27T23:39:13.223Z,78.00
2017-08-27T23:41:40.793Z,79.60
2017-08-27T23:44:08.346Z,80.70
2017-08-27T23:46:35.888Z,79.20
2017-08-27T23:49:03.478Z,80.60
2017-08-27T23:51:31.039Z,80.20
2017-08-27T23:53:58.611Z,80.60
2017-08-27T23:56:26.166Z,80.80
2017-08-27T23:58:53.744Z,80.60
